Weather reports worldwide

Advertisment
Otranto, Italy (16334): temperature & dewpoint: 05.12.2019 09:00:00 - 11.12.2019 09:00:00 (CET)Otranto, Italy (16334): wind speed: 05.12.2019 09:00:00 - 11.12.2019 09:00:00 (CET)Otranto, Italy (16334): wind direction: 05.12.2019 09:00:00 - 11.12.2019 09:00:00 (CET)
Date & Time tt [°C] td [°C] ff [km/h] ff [kn] dd
11.12.2019 09:00:00 - - - - -
11.12.2019 08:00:00 14,1 14,0 15 8 NE
11.12.2019 07:00:00 14,5 13,8 26 14 NE
11.12.2019 06:00:00 13,8 13,7 24 13 N
11.12.2019 05:00:00 13,2 13,1 28 15 NNW
11.12.2019 04:00:00 12,7 12,7 21 11 NE
11.12.2019 03:00:00 12,7 12,7 16 9 NNE
11.12.2019 02:00:00 12,7 12,7 9 5 NE
11.12.2019 01:00:00 13,3 13,2 11 6 ENE
11.12.2019 00:00:00 14,0 13,9 13 7 E
10.12.2019 23:00:00 14,4 14,3 16 9 NNE
10.12.2019 22:00:00 14,3 14,2 18 10 NNE
10.12.2019 21:00:00 14,1 14,0 18 10 N
10.12.2019 20:00:00 13,7 13,6 16 9 N
10.12.2019 19:00:00 12,3 12,3 8 4 NNW
10.12.2019 18:00:00 12,9 12,8 8 4 NNW
10.12.2019 17:00:00 13,5 13,4 5 3 NNW
10.12.2019 16:00:00 14,2 14,1 0 0 N
10.12.2019 15:00:00 14,7 14,6 0 0 N
10.12.2019 14:00:00 14,7 14,6 0 0 N
10.12.2019 13:00:00 15,0 14,9 5 3 SSE
10.12.2019 12:00:00 13,9 13,8 2 1 SSW
10.12.2019 11:00:00 12,6 12,6 9 5 SSE
10.12.2019 10:00:00 14,1 14,0 5 3 SW
10.12.2019 09:00:00 14,3 14,2 8 4 W
10.12.2019 08:00:00 13,5 13,4 9 5 S
10.12.2019 07:00:00 12,7 12,7 5 3 W
10.12.2019 06:00:00 12,9 12,8 8 4 W
10.12.2019 05:00:00 13,7 13,6 8 4 W
10.12.2019 04:00:00 13,8 13,7 8 4 W
10.12.2019 03:00:00 13,8 13,7 4 2 S
10.12.2019 02:00:00 14,0 13,9 5 3 S
10.12.2019 01:00:00 13,9 12,9 5 3 SW
10.12.2019 00:00:00 14,1 13,1 5 3 SW
09.12.2019 23:00:00 14,3 13,3 4 2 S
09.12.2019 22:00:00 14,1 13,1 8 4 SW
09.12.2019 21:00:00 13,9 13,8 4 2 SW
09.12.2019 20:00:00 14,0 13,9 8 4 SW
09.12.2019 19:00:00 14,4 14,3 8 4 SW
09.12.2019 18:00:00 14,8 14,7 8 4 SSW
09.12.2019 17:00:00 15,3 15,2 4 2 SSW
09.12.2019 16:00:00 15,8 15,7 11 6 SSW
09.12.2019 15:00:00 15,9 15,8 13 7 S
09.12.2019 14:00:00 15,7 15,6 18 10 S
09.12.2019 13:00:00 16,4 16,3 18 10 SSE
09.12.2019 12:00:00 16,5 16,4 16 9 S
09.12.2019 11:00:00 - - - - -
09.12.2019 10:00:00 - - - - -
09.12.2019 09:00:00 - - - - -
09.12.2019 08:00:00 13,2 13,1 5 3 SSE
09.12.2019 07:00:00 12,5 12,5 0 0 N
09.12.2019 06:00:00 12,6 12,6 0 0 N
09.12.2019 05:00:00 12,5 12,5 4 2 SSW
09.12.2019 04:00:00 12,2 12,2 5 3 WSW
09.12.2019 03:00:00 12,2 12,2 0 0 N
09.12.2019 02:00:00 12,1 12,1 5 3 WSW
09.12.2019 01:00:00 11,6 11,6 2 1 W
09.12.2019 00:00:00 11,7 11,7 0 0 N
08.12.2019 23:00:00 13,1 13,0 0 0 N
08.12.2019 22:00:00 13,2 13,1 2 1 W
08.12.2019 21:00:00 13,0 12,9 4 2 NNE
08.12.2019 20:00:00 14,0 13,9 4 2 NNE
08.12.2019 19:00:00 14,1 14,0 8 4 NNE
08.12.2019 18:00:00 14,3 14,2 5 3 NNE
08.12.2019 17:00:00 14,7 14,6 5 3 NNE
08.12.2019 16:00:00 15,7 15,6 8 4 NNE
08.12.2019 15:00:00 16,1 16,0 5 3 NNE
08.12.2019 14:00:00 17,1 15,9 8 4 NE
08.12.2019 13:00:00 17,3 16,1 5 3 N
08.12.2019 12:00:00 16,8 15,8 5 3 ENE
08.12.2019 11:00:00 - - - - -
08.12.2019 10:00:00 - - - - -
08.12.2019 09:00:00 13,5 13,4 5 3 WNW
08.12.2019 08:00:00 12,1 12,1 8 4 NW
08.12.2019 07:00:00 12,2 12,2 8 4 WNW
08.12.2019 06:00:00 12,2 12,2 5 3 NNW
08.12.2019 05:00:00 12,6 12,6 8 4 NNW
08.12.2019 04:00:00 13,1 13,0 5 3 NW
08.12.2019 03:00:00 13,2 13,1 5 3 NW
08.12.2019 02:00:00 13,2 13,1 4 2 W
08.12.2019 01:00:00 13,2 13,1 4 2 NW
08.12.2019 00:00:00 13,2 13,1 2 1 W
07.12.2019 23:00:00 13,1 13,0 0 0 N
07.12.2019 22:00:00 13,2 13,1 2 1 NNW
07.12.2019 21:00:00 13,0 12,9 4 2 NNW
07.12.2019 20:00:00 12,8 12,8 5 3 NNW
07.12.2019 19:00:00 13,3 13,2 5 3 WNW
07.12.2019 18:00:00 14,0 13,9 8 4 NNW
07.12.2019 17:00:00 15,0 14,9 9 5 NNW
07.12.2019 16:00:00 16,5 16,4 5 3 N
07.12.2019 15:00:00 17,5 16,3 8 4 N
07.12.2019 14:00:00 17,5 16,3 11 6 NW
07.12.2019 13:00:00 17,6 16,4 11 6 NNW
07.12.2019 12:00:00 17,1 17,0 8 4 N
07.12.2019 11:00:00 - - - - -
07.12.2019 10:00:00 - - - - -
07.12.2019 09:00:00 14,1 14,0 8 4 WNW
07.12.2019 08:00:00 14,0 13,9 9 5 NW
07.12.2019 07:00:00 13,7 13,6 8 4 WNW
07.12.2019 06:00:00 13,5 13,4 9 5 W
07.12.2019 05:00:00 13,7 13,6 11 6 WNW
07.12.2019 04:00:00 14,4 14,3 5 3 W
07.12.2019 03:00:00 14,9 14,8 8 4 W
07.12.2019 02:00:00 15,1 15,0 5 3 WNW
07.12.2019 01:00:00 15,1 15,0 13 7 NNW
07.12.2019 00:00:00 14,6 14,5 13 7 WNW
06.12.2019 23:00:00 15,7 15,6 9 5 WNW
06.12.2019 22:00:00 16,2 16,1 8 4 SW
06.12.2019 21:00:00 16,2 16,1 5 3 WSW
06.12.2019 20:00:00 16,8 16,7 15 8 SE
06.12.2019 19:00:00 16,5 16,4 13 7 SE
06.12.2019 18:00:00 16,6 16,5 18 10 SE
06.12.2019 17:00:00 16,8 16,7 15 8 ESE
06.12.2019 16:00:00 16,9 16,8 8 4 SSE
06.12.2019 15:00:00 - - - - -
06.12.2019 14:00:00 - - - - -
06.12.2019 13:00:00 - - - - -
06.12.2019 12:00:00 - - - - -
06.12.2019 11:00:00 16,6 16,5 9 5 S
06.12.2019 10:00:00 16,2 16,1 2 1 WSW
06.12.2019 09:00:00 16,5 16,4 11 6 SE
06.12.2019 08:00:00 16,5 16,4 11 6 S
06.12.2019 07:00:00 16,3 16,2 8 4 SE
06.12.2019 06:00:00 16,2 16,1 11 6 SSE
06.12.2019 05:00:00 16,1 16,0 9 5 SSE
06.12.2019 04:00:00 15,9 15,8 5 3 S
06.12.2019 03:00:00 16,1 16,0 13 7 ESE
06.12.2019 02:00:00 16,1 16,0 5 3 ESE
06.12.2019 01:00:00 16,0 15,9 8 4 SE
06.12.2019 00:00:00 15,8 15,7 9 5 SE
05.12.2019 23:00:00 15,4 15,3 9 5 SE
05.12.2019 22:00:00 14,3 14,2 5 3 SE
05.12.2019 21:00:00 14,4 14,3 8 4 SE
05.12.2019 20:00:00 14,6 14,5 5 3 ESE
05.12.2019 19:00:00 14,3 14,2 11 6 SE
05.12.2019 18:00:00 14,2 14,1 8 4 ESE
05.12.2019 17:00:00 13,8 13,7 11 6 E
05.12.2019 16:00:00 14,3 14,2 15 8 ESE
05.12.2019 15:00:00 14,6 14,5 16 9 E
05.12.2019 14:00:00 15,5 15,4 11 6 SSE
05.12.2019 13:00:00 16,0 15,9 9 5 SE
05.12.2019 12:00:00 16,1 15,1 9 5 SE
05.12.2019 11:00:00 16,3 15,3 15 8 SE
05.12.2019 10:00:00 16,0 15,0 11 6 SE
05.12.2019 09:00:00 15,3 14,3 9 5 ESE

tt = temperature
td = dewpoint
ff = wind speed
dd = wind direction

Next stations